sensor_id;sensor_type;location;lat;lon;timestamp;P1;durP1;ratioP1;P2;durP2;ratioP2
72406;SDS011;60396;47.550;18.828;2023-06-14T00:02:02;5.25;;;1.80;;
72406;SDS011;60396;47.550;18.828;2023-06-14T00:04:31;7.53;;;1.57;;
72406;SDS011;60396;47.550;18.828;2023-06-14T00:06:59;6.70;;;1.75;;
72406;SDS011;60396;47.550;18.828;2023-06-14T00:09:26;8.52;;;2.12;;
72406;SDS011;60396;47.550;18.828;2023-06-14T00:11:54;5.68;;;1.83;;
72406;SDS011;60396;47.550;18.828;2023-06-14T00:14:22;5.80;;;1.80;;
72406;SDS011;60396;47.550;18.828;2023-06-14T00:16:49;9.63;;;3.87;;
72406;SDS011;60396;47.550;18.828;2023-06-14T00:19:20;6.82;;;1.87;;
72406;SDS011;60396;47.550;18.828;2023-06-14T00:21:48;6.00;;;1.98;;
72406;SDS011;60396;47.550;18.828;2023-06-14T00:24:16;9.52;;;2.10;;
72406;SDS011;60396;47.550;18.828;2023-06-14T00:26:44;5.78;;;1.77;;
72406;SDS011;60396;47.550;18.828;2023-06-14T00:29:11;6.97;;;2.20;;
72406;SDS011;60396;47.550;18.828;2023-06-14T00:31:39;7.00;;;2.35;;
72406;SDS011;60396;47.550;18.828;2023-06-14T00:34:07;5.93;;;2.10;;
72406;SDS011;60396;47.550;18.828;2023-06-14T00:36:34;6.97;;;2.22;;
72406;SDS011;60396;47.550;18.828;2023-06-14T00:39:02;6.87;;;2.08;;
72406;SDS011;60396;47.550;18.828;2023-06-14T00:41:31;7.17;;;2.20;;
72406;SDS011;60396;47.550;18.828;2023-06-14T00:44:00;8.18;;;2.10;;
72406;SDS011;60396;47.550;18.828;2023-06-14T00:46:27;7.45;;;2.50;;
72406;SDS011;60396;47.550;18.828;2023-06-14T00:48:56;6.37;;;1.70;;
72406;SDS011;60396;47.550;18.828;2023-06-14T00:51:24;5.90;;;2.00;;
72406;SDS011;60396;47.550;18.828;2023-06-14T00:53:52;7.63;;;2.13;;
72406;SDS011;60396;47.550;18.828;2023-06-14T00:56:20;7.82;;;2.33;;
72406;SDS011;60396;47.550;18.828;2023-06-14T00:58:50;6.85;;;1.87;;
72406;SDS011;60396;47.550;18.828;2023-06-14T01:01:18;8.38;;;1.83;;
72406;SDS011;60396;47.550;18.828;2023-06-14T01:03:46;5.70;;;1.77;;
72406;SDS011;60396;47.550;18.828;2023-06-14T01:06:35;6.43;;;2.00;;
72406;SDS011;60396;47.550;18.828;2023-06-14T01:14:41;5.60;;;1.62;;
72406;SDS011;60396;47.550;18.828;2023-06-14T01:17:09;5.70;;;1.87;;
72406;SDS011;60396;47.550;18.828;2023-06-14T01:19:44;8.50;;;2.30;;
72406;SDS011;60396;47.550;18.828;2023-06-14T01:22:14;10.40;;;2.40;;
72406;SDS011;60396;47.550;18.828;2023-06-14T01:24:41;6.40;;;1.95;;
72406;SDS011;60396;47.550;18.828;2023-06-14T01:27:12;9.70;;;2.30;;
72406;SDS011;60396;47.550;18.828;2023-06-14T01:29:40;9.18;;;2.20;;
72406;SDS011;60396;47.550;18.828;2023-06-14T01:32:14;6.93;;;2.20;;
72406;SDS011;60396;47.550;18.828;2023-06-14T01:34:42;8.25;;;2.42;;
72406;SDS011;60396;47.550;18.828;2023-06-14T01:37:10;8.20;;;2.03;;
72406;SDS011;60396;47.550;18.828;2023-06-14T01:39:39;7.03;;;2.47;;
72406;SDS011;60396;47.550;18.828;2023-06-14T01:42:06;7.93;;;1.95;;
72406;SDS011;60396;47.550;18.828;2023-06-14T01:44:34;7.17;;;2.00;;
72406;SDS011;60396;47.550;18.828;2023-06-14T01:47:02;8.00;;;2.30;;
72406;SDS011;60396;47.550;18.828;2023-06-14T01:49:33;8.43;;;2.40;;
72406;SDS011;60396;47.550;18.828;2023-06-14T01:52:02;6.72;;;2.22;;
72406;SDS011;60396;47.550;18.828;2023-06-14T01:54:30;7.05;;;2.33;;
72406;SDS011;60396;47.550;18.828;2023-06-14T01:56:58;7.27;;;2.20;;
72406;SDS011;60396;47.550;18.828;2023-06-14T01:59:25;7.07;;;2.35;;
72406;SDS011;60396;47.550;18.828;2023-06-14T02:01:53;6.43;;;2.28;;
72406;SDS011;60396;47.550;18.828;2023-06-14T02:04:21;7.07;;;2.12;;
72406;SDS011;60396;47.550;18.828;2023-06-14T02:06:49;7.60;;;2.62;;
72406;SDS011;60396;47.550;18.828;2023-06-14T02:09:17;9.77;;;2.20;;
72406;SDS011;60396;47.550;18.828;2023-06-14T02:11:45;8.23;;;2.55;;
72406;SDS011;60396;47.550;18.828;2023-06-14T02:14:13;8.20;;;2.60;;
72406;SDS011;60396;47.550;18.828;2023-06-14T02:16:41;9.60;;;2.78;;
72406;SDS011;60396;47.550;18.828;2023-06-14T02:19:16;8.23;;;2.35;;
72406;SDS011;60396;47.550;18.828;2023-06-14T02:21:44;6.40;;;2.10;;
72406;SDS011;60396;47.550;18.828;2023-06-14T02:24:12;6.95;;;2.28;;
72406;SDS011;60396;47.550;18.828;2023-06-14T02:26:41;8.63;;;2.70;;
72406;SDS011;60396;47.550;18.828;2023-06-14T02:29:12;6.85;;;2.35;;
72406;SDS011;60396;47.550;18.828;2023-06-14T02:31:42;8.38;;;2.95;;
72406;SDS011;60396;47.550;18.828;2023-06-14T02:34:10;9.27;;;3.20;;
72406;SDS011;60396;47.550;18.828;2023-06-14T02:36:37;10.23;;;3.87;;
72406;SDS011;60396;47.550;18.828;2023-06-14T02:39:09;9.60;;;3.50;;
72406;SDS011;60396;47.550;18.828;2023-06-14T02:41:38;10.13;;;3.65;;
72406;SDS011;60396;47.550;18.828;2023-06-14T02:44:06;9.55;;;3.78;;
72406;SDS011;60396;47.550;18.828;2023-06-14T02:46:34;9.43;;;3.30;;
72406;SDS011;60396;47.550;18.828;2023-06-14T02:49:01;9.70;;;3.65;;
72406;SDS011;60396;47.550;18.828;2023-06-14T02:51:30;9.88;;;4.37;;
72406;SDS011;60396;47.550;18.828;2023-06-14T02:53:58;10.48;;;3.87;;
72406;SDS011;60396;47.550;18.828;2023-06-14T02:56:26;9.38;;;3.53;;
72406;SDS011;60396;47.550;18.828;2023-06-14T02:58:54;10.17;;;3.83;;
72406;SDS011;60396;47.550;18.828;2023-06-14T03:01:22;9.38;;;3.45;;
72406;SDS011;60396;47.550;18.828;2023-06-14T03:03:50;9.93;;;3.95;;
72406;SDS011;60396;47.550;18.828;2023-06-14T03:06:18;9.38;;;3.37;;
72406;SDS011;60396;47.550;18.828;2023-06-14T03:08:47;8.57;;;3.55;;
72406;SDS011;60396;47.550;18.828;2023-06-14T03:11:16;8.40;;;3.40;;
72406;SDS011;60396;47.550;18.828;2023-06-14T03:13:48;9.70;;;3.70;;
72406;SDS011;60396;47.550;18.828;2023-06-14T03:16:16;8.65;;;3.62;;
72406;SDS011;60396;47.550;18.828;2023-06-14T03:18:48;10.18;;;3.80;;
72406;SDS011;60396;47.550;18.828;2023-06-14T03:21:21;9.82;;;4.30;;
72406;SDS011;60396;47.550;18.828;2023-06-14T03:23:49;10.67;;;3.77;;
72406;SDS011;60396;47.550;18.828;2023-06-14T03:26:17;8.27;;;3.67;;
72406;SDS011;60396;47.550;18.828;2023-06-14T03:28:45;9.38;;;3.67;;
72406;SDS011;60396;47.550;18.828;2023-06-14T03:31:14;8.77;;;3.40;;
72406;SDS011;60396;47.550;18.828;2023-06-14T03:33:42;8.65;;;3.58;;
72406;SDS011;60396;47.550;18.828;2023-06-14T03:36:10;10.00;;;3.40;;
72406;SDS011;60396;47.550;18.828;2023-06-14T03:38:37;10.73;;;4.00;;
72406;SDS011;60396;47.550;18.828;2023-06-14T03:41:05;8.68;;;3.42;;
72406;SDS011;60396;47.550;18.828;2023-06-14T03:43:33;8.77;;;3.75;;
72406;SDS011;60396;47.550;18.828;2023-06-14T03:46:02;9.93;;;3.65;;
72406;SDS011;60396;47.550;18.828;2023-06-14T03:48:30;10.83;;;3.87;;
72406;SDS011;60396;47.550;18.828;2023-06-14T03:50:58;10.93;;;3.92;;
72406;SDS011;60396;47.550;18.828;2023-06-14T03:53:28;9.60;;;3.70;;
72406;SDS011;60396;47.550;18.828;2023-06-14T03:55:57;10.45;;;4.12;;
72406;SDS011;60396;47.550;18.828;2023-06-14T03:58:25;10.77;;;4.43;;
72406;SDS011;60396;47.550;18.828;2023-06-14T04:00:53;12.03;;;4.27;;
72406;SDS011;60396;47.550;18.828;2023-06-14T04:03:21;11.52;;;4.65;;
72406;SDS011;60396;47.550;18.828;2023-06-14T04:05:51;12.25;;;4.53;;
72406;SDS011;60396;47.550;18.828;2023-06-14T04:08:19;11.00;;;4.25;;
72406;SDS011;60396;47.550;18.828;2023-06-14T04:10:50;9.70;;;3.97;;
72406;SDS011;60396;47.550;18.828;2023-06-14T04:13:18;10.13;;;4.00;;
72406;SDS011;60396;47.550;18.828;2023-06-14T04:15:45;10.20;;;4.20;;
72406;SDS011;60396;47.550;18.828;2023-06-14T04:18:14;11.43;;;4.43;;
72406;SDS011;60396;47.550;18.828;2023-06-14T04:20:42;9.27;;;3.83;;
72406;SDS011;60396;47.550;18.828;2023-06-14T04:23:14;9.98;;;4.10;;
72406;SDS011;60396;47.550;18.828;2023-06-14T04:25:45;9.10;;;3.73;;
72406;SDS011;60396;47.550;18.828;2023-06-14T04:28:14;10.48;;;4.10;;
72406;SDS011;60396;47.550;18.828;2023-06-14T04:30:46;10.70;;;4.18;;
72406;SDS011;60396;47.550;18.828;2023-06-14T04:33:15;10.07;;;3.85;;
72406;SDS011;60396;47.550;18.828;2023-06-14T04:35:43;9.18;;;4.28;;
72406;SDS011;60396;47.550;18.828;2023-06-14T04:38:15;10.73;;;3.97;;
72406;SDS011;60396;47.550;18.828;2023-06-14T04:40:43;9.18;;;3.92;;
72406;SDS011;60396;47.550;18.828;2023-06-14T04:43:11;12.90;;;4.78;;
72406;SDS011;60396;47.550;18.828;2023-06-14T04:45:40;9.95;;;3.87;;
72406;SDS011;60396;47.550;18.828;2023-06-14T04:48:08;10.15;;;4.20;;
72406;SDS011;60396;47.550;18.828;2023-06-14T04:50:35;11.93;;;4.20;;
72406;SDS011;60396;47.550;18.828;2023-06-14T04:53:04;13.18;;;4.82;;
72406;SDS011;60396;47.550;18.828;2023-06-14T04:55:34;10.65;;;4.05;;
72406;SDS011;60396;47.550;18.828;2023-06-14T04:58:02;10.20;;;4.30;;
72406;SDS011;60396;47.550;18.828;2023-06-14T05:00:30;13.02;;;4.47;;
72406;SDS011;60396;47.550;18.828;2023-06-14T05:02:59;8.77;;;3.93;;
72406;SDS011;60396;47.550;18.828;2023-06-14T05:05:28;8.77;;;3.60;;
72406;SDS011;60396;47.550;18.828;2023-06-14T05:07:56;9.95;;;3.92;;
72406;SDS011;60396;47.550;18.828;2023-06-14T05:10:24;9.85;;;4.10;;
72406;SDS011;60396;47.550;18.828;2023-06-14T05:12:52;9.77;;;3.78;;
72406;SDS011;60396;47.550;18.828;2023-06-14T05:15:20;14.00;;;4.00;;
72406;SDS011;60396;47.550;18.828;2023-06-14T05:17:52;10.80;;;4.20;;
72406;SDS011;60396;47.550;18.828;2023-06-14T05:20:23;9.63;;;4.50;;
72406;SDS011;60396;47.550;18.828;2023-06-14T05:22:53;10.38;;;4.10;;
72406;SDS011;60396;47.550;18.828;2023-06-14T05:25:21;8.27;;;3.72;;
72406;SDS011;60396;47.550;18.828;2023-06-14T05:27:49;9.40;;;4.17;;
72406;SDS011;60396;47.550;18.828;2023-06-14T05:30:17;12.93;;;4.22;;
72406;SDS011;60396;47.550;18.828;2023-06-14T05:32:45;9.95;;;3.72;;
72406;SDS011;60396;47.550;18.828;2023-06-14T05:35:13;9.50;;;3.67;;
72406;SDS011;60396;47.550;18.828;2023-06-14T05:37:42;9.95;;;4.65;;
72406;SDS011;60396;47.550;18.828;2023-06-14T05:40:09;11.77;;;4.30;;
72406;SDS011;60396;47.550;18.828;2023-06-14T05:42:37;14.02;;;3.83;;
72406;SDS011;60396;47.550;18.828;2023-06-14T05:45:05;9.88;;;4.07;;
72406;SDS011;60396;47.550;18.828;2023-06-14T05:47:33;9.00;;;3.33;;
72406;SDS011;60396;47.550;18.828;2023-06-14T05:50:01;9.90;;;4.45;;
72406;SDS011;60396;47.550;18.828;2023-06-14T05:52:29;9.87;;;3.90;;
72406;SDS011;60396;47.550;18.828;2023-06-14T05:54:56;14.48;;;4.53;;
72406;SDS011;60396;47.550;18.828;2023-06-14T05:57:24;8.98;;;3.58;;
72406;SDS011;60396;47.550;18.828;2023-06-14T05:59:52;11.88;;;3.70;;
72406;SDS011;60396;47.550;18.828;2023-06-14T06:02:19;9.45;;;3.78;;
72406;SDS011;60396;47.550;18.828;2023-06-14T06:04:47;13.13;;;3.93;;
72406;SDS011;60396;47.550;18.828;2023-06-14T06:07:15;8.85;;;3.50;;
72406;SDS011;60396;47.550;18.828;2023-06-14T06:09:43;9.77;;;3.85;;
72406;SDS011;60396;47.550;18.828;2023-06-14T06:12:11;12.77;;;4.32;;
72406;SDS011;60396;47.550;18.828;2023-06-14T06:14:38;10.02;;;4.35;;
72406;SDS011;60396;47.550;18.828;2023-06-14T06:17:06;11.17;;;4.40;;
72406;SDS011;60396;47.550;18.828;2023-06-14T06:19:34;12.60;;;4.57;;
72406;SDS011;60396;47.550;18.828;2023-06-14T06:22:02;10.20;;;4.07;;
72406;SDS011;60396;47.550;18.828;2023-06-14T06:24:32;10.25;;;3.83;;
72406;SDS011;60396;47.550;18.828;2023-06-14T06:27:00;8.85;;;3.35;;
72406;SDS011;60396;47.550;18.828;2023-06-14T06:29:28;14.17;;;3.60;;
72406;SDS011;60396;47.550;18.828;2023-06-14T06:31:55;9.70;;;3.85;;
72406;SDS011;60396;47.550;18.828;2023-06-14T06:34:24;8.52;;;3.25;;
72406;SDS011;60396;47.550;18.828;2023-06-14T06:36:51;8.52;;;3.25;;
72406;SDS011;60396;47.550;18.828;2023-06-14T06:39:19;7.68;;;3.00;;
72406;SDS011;60396;47.550;18.828;2023-06-14T06:41:47;12.20;;;3.60;;
72406;SDS011;60396;47.550;18.828;2023-06-14T06:44:18;9.30;;;4.12;;
72406;SDS011;60396;47.550;18.828;2023-06-14T06:46:48;9.57;;;3.25;;
72406;SDS011;60396;47.550;18.828;2023-06-14T06:49:16;9.30;;;3.75;;
72406;SDS011;60396;47.550;18.828;2023-06-14T06:51:52;10.27;;;3.22;;
72406;SDS011;60396;47.550;18.828;2023-06-14T06:54:27;8.87;;;3.47;;
72406;SDS011;60396;47.550;18.828;2023-06-14T06:56:54;9.65;;;3.40;;
72406;SDS011;60396;47.550;18.828;2023-06-14T06:59:22;10.85;;;3.42;;
72406;SDS011;60396;47.550;18.828;2023-06-14T07:01:50;9.93;;;3.62;;
72406;SDS011;60396;47.550;18.828;2023-06-14T07:04:20;10.35;;;3.85;;
72406;SDS011;60396;47.550;18.828;2023-06-14T07:06:48;10.53;;;3.73;;
72406;SDS011;60396;47.550;18.828;2023-06-14T07:09:16;10.45;;;3.40;;
72406;SDS011;60396;47.550;18.828;2023-06-14T07:11:44;13.15;;;4.00;;
72406;SDS011;60396;47.550;18.828;2023-06-14T07:14:12;9.52;;;3.72;;
72406;SDS011;60396;47.550;18.828;2023-06-14T07:16:40;10.35;;;3.90;;
72406;SDS011;60396;47.550;18.828;2023-06-14T07:19:08;8.67;;;3.40;;
72406;SDS011;60396;47.550;18.828;2023-06-14T07:21:37;11.30;;;3.90;;
72406;SDS011;60396;47.550;18.828;2023-06-14T07:24:06;8.95;;;3.60;;
72406;SDS011;60396;47.550;18.828;2023-06-14T07:26:35;8.55;;;3.47;;
72406;SDS011;60396;47.550;18.828;2023-06-14T07:29:03;8.65;;;3.25;;
72406;SDS011;60396;47.550;18.828;2023-06-14T07:31:30;8.37;;;3.50;;
72406;SDS011;60396;47.550;18.828;2023-06-14T07:33:58;9.63;;;3.65;;
72406;SDS011;60396;47.550;18.828;2023-06-14T07:36:26;14.10;;;3.55;;
72406;SDS011;60396;47.550;18.828;2023-06-14T07:38:54;13.73;;;3.25;;
72406;SDS011;60396;47.550;18.828;2023-06-14T07:41:21;10.32;;;2.97;;
72406;SDS011;60396;47.550;18.828;2023-06-14T07:43:49;7.90;;;3.10;;
72406;SDS011;60396;47.550;18.828;2023-06-14T07:46:17;10.85;;;3.12;;
72406;SDS011;60396;47.550;18.828;2023-06-14T07:48:44;7.20;;;2.65;;
72406;SDS011;60396;47.550;18.828;2023-06-14T07:51:12;8.15;;;2.87;;
72406;SDS011;60396;47.550;18.828;2023-06-14T07:53:41;9.50;;;3.58;;
72406;SDS011;60396;47.550;18.828;2023-06-14T07:56:09;8.20;;;3.70;;
72406;SDS011;60396;47.550;18.828;2023-06-14T07:58:36;10.80;;;3.65;;
72406;SDS011;60396;47.550;18.828;2023-06-14T08:01:04;7.57;;;3.05;;
72406;SDS011;60396;47.550;18.828;2023-06-14T08:03:33;9.10;;;3.10;;
72406;SDS011;60396;47.550;18.828;2023-06-14T08:06:02;9.85;;;3.55;;
72406;SDS011;60396;47.550;18.828;2023-06-14T08:08:29;8.23;;;3.03;;
72406;SDS011;60396;47.550;18.828;2023-06-14T08:10:58;16.70;;;3.10;;
72406;SDS011;60396;47.550;18.828;2023-06-14T08:13:25;8.40;;;2.70;;
72406;SDS011;60396;47.550;18.828;2023-06-14T08:15:53;9.70;;;2.92;;
72406;SDS011;60396;47.550;18.828;2023-06-14T08:18:21;8.80;;;3.08;;
72406;SDS011;60396;47.550;18.828;2023-06-14T08:20:48;7.30;;;3.10;;
72406;SDS011;60396;47.550;18.828;2023-06-14T08:23:17;9.52;;;3.08;;
72406;SDS011;60396;47.550;18.828;2023-06-14T08:25:46;12.88;;;3.50;;
72406;SDS011;60396;47.550;18.828;2023-06-14T08:28:14;12.65;;;3.72;;
72406;SDS011;60396;47.550;18.828;2023-06-14T08:30:42;11.35;;;3.53;;
72406;SDS011;60396;47.550;18.828;2023-06-14T08:33:10;9.83;;;3.80;;
72406;SDS011;60396;47.550;18.828;2023-06-14T08:35:43;11.85;;;3.00;;
72406;SDS011;60396;47.550;18.828;2023-06-14T08:38:12;10.77;;;3.50;;
72406;SDS011;60396;47.550;18.828;2023-06-14T08:40:40;10.98;;;3.65;;
72406;SDS011;60396;47.550;18.828;2023-06-14T08:43:09;10.30;;;4.00;;
72406;SDS011;60396;47.550;18.828;2023-06-14T08:45:37;9.90;;;3.43;;
72406;SDS011;60396;47.550;18.828;2023-06-14T08:48:07;11.12;;;4.22;;
72406;SDS011;60396;47.550;18.828;2023-06-14T08:50:36;10.93;;;3.62;;
72406;SDS011;60396;47.550;18.828;2023-06-14T08:53:09;10.30;;;3.95;;
72406;SDS011;60396;47.550;18.828;2023-06-14T08:55:39;11.52;;;3.95;;
72406;SDS011;60396;47.550;18.828;2023-06-14T08:58:10;15.17;;;4.80;;
72406;SDS011;60396;47.550;18.828;2023-06-14T09:00:42;15.27;;;4.22;;
72406;SDS011;60396;47.550;18.828;2023-06-14T09:03:10;9.77;;;4.15;;
72406;SDS011;60396;47.550;18.828;2023-06-14T09:05:41;9.32;;;3.90;;
72406;SDS011;60396;47.550;18.828;2023-06-14T09:08:08;8.63;;;3.37;;
72406;SDS011;60396;47.550;18.828;2023-06-14T09:10:37;11.47;;;3.77;;
72406;SDS011;60396;47.550;18.828;2023-06-14T09:13:07;9.52;;;3.40;;
72406;SDS011;60396;47.550;18.828;2023-06-14T09:15:34;12.55;;;3.47;;
72406;SDS011;60396;47.550;18.828;2023-06-14T09:18:03;11.35;;;3.45;;
72406;SDS011;60396;47.550;18.828;2023-06-14T09:20:31;9.18;;;3.70;;
72406;SDS011;60396;47.550;18.828;2023-06-14T09:23:00;14.10;;;3.80;;
72406;SDS011;60396;47.550;18.828;2023-06-14T09:25:28;15.68;;;4.00;;
72406;SDS011;60396;47.550;18.828;2023-06-14T09:28:07;9.98;;;3.33;;
72406;SDS011;60396;47.550;18.828;2023-06-14T09:30:37;8.25;;;3.60;;
72406;SDS011;60396;47.550;18.828;2023-06-14T09:33:08;8.98;;;3.65;;
72406;SDS011;60396;47.550;18.828;2023-06-14T09:35:36;9.07;;;2.90;;
72406;SDS011;60396;47.550;18.828;2023-06-14T09:38:04;12.02;;;4.07;;
72406;SDS011;60396;47.550;18.828;2023-06-14T09:40:35;8.88;;;3.72;;
72406;SDS011;60396;47.550;18.828;2023-06-14T09:43:06;7.82;;;3.20;;
72406;SDS011;60396;47.550;18.828;2023-06-14T09:45:40;8.25;;;3.50;;
72406;SDS011;60396;47.550;18.828;2023-06-14T09:48:08;9.30;;;3.60;;
72406;SDS011;60396;47.550;18.828;2023-06-14T09:50:37;8.82;;;3.83;;
72406;SDS011;60396;47.550;18.828;2023-06-14T09:53:09;12.25;;;3.72;;
72406;SDS011;60396;47.550;18.828;2023-06-14T09:55:40;8.30;;;3.40;;
72406;SDS011;60396;47.550;18.828;2023-06-14T09:58:09;11.40;;;3.42;;
72406;SDS011;60396;47.550;18.828;2023-06-14T10:00:37;9.37;;;3.90;;
72406;SDS011;60396;47.550;18.828;2023-06-14T10:03:13;10.98;;;3.37;;
72406;SDS011;60396;47.550;18.828;2023-06-14T10:05:43;9.98;;;3.22;;
72406;SDS011;60396;47.550;18.828;2023-06-14T10:08:16;10.20;;;4.03;;
72406;SDS011;60396;47.550;18.828;2023-06-14T10:10:45;11.30;;;3.62;;
72406;SDS011;60396;47.550;18.828;2023-06-14T10:13:13;9.87;;;3.43;;
72406;SDS011;60396;47.550;18.828;2023-06-14T10:15:44;11.52;;;3.15;;
72406;SDS011;60396;47.550;18.828;2023-06-14T10:18:24;10.98;;;2.50;;
72406;SDS011;60396;47.550;18.828;2023-06-14T10:21:26;7.80;;;2.50;;
72406;SDS011;60396;47.550;18.828;2023-06-14T10:24:03;8.43;;;3.25;;
72406;SDS011;60396;47.550;18.828;2023-06-14T10:26:33;10.57;;;3.17;;
72406;SDS011;60396;47.550;18.828;2023-06-14T10:29:07;7.05;;;2.80;;
72406;SDS011;60396;47.550;18.828;2023-06-14T10:31:57;7.75;;;2.80;;
72406;SDS011;60396;47.550;18.828;2023-06-14T10:37:00;8.23;;;3.58;;
72406;SDS011;60396;47.550;18.828;2023-06-14T10:39:49;8.53;;;2.83;;
72406;SDS011;60396;47.550;18.828;2023-06-14T10:42:17;7.75;;;3.40;;
72406;SDS011;60396;47.550;18.828;2023-06-14T10:44:49;8.77;;;2.90;;
72406;SDS011;60396;47.550;18.828;2023-06-14T10:47:20;8.20;;;3.03;;
72406;SDS011;60396;47.550;18.828;2023-06-14T10:49:52;8.30;;;3.20;;
72406;SDS011;60396;47.550;18.828;2023-06-14T10:52:22;8.47;;;3.00;;
72406;SDS011;60396;47.550;18.828;2023-06-14T10:55:05;8.95;;;3.28;;
72406;SDS011;60396;47.550;18.828;2023-06-14T10:57:46;15.02;;;3.53;;
72406;SDS011;60396;47.550;18.828;2023-06-14T11:00:19;9.68;;;4.00;;
72406;SDS011;60396;47.550;18.828;2023-06-14T11:11:14;13.70;;;3.50;;
72406;SDS011;60396;47.550;18.828;2023-06-14T11:13:44;8.32;;;2.80;;
72406;SDS011;60396;47.550;18.828;2023-06-14T11:16:16;8.48;;;3.30;;
72406;SDS011;60396;47.550;18.828;2023-06-14T11:18:44;11.07;;;3.33;;
72406;SDS011;60396;47.550;18.828;2023-06-14T11:21:16;8.52;;;2.78;;
72406;SDS011;60396;47.550;18.828;2023-06-14T11:23:49;9.60;;;3.15;;
72406;SDS011;60396;47.550;18.828;2023-06-14T11:26:39;9.93;;;1.90;;
72406;SDS011;60396;47.550;18.828;2023-06-14T11:29:07;6.78;;;1.85;;
72406;SDS011;60396;47.550;18.828;2023-06-14T11:31:34;6.23;;;2.17;;
72406;SDS011;60396;47.550;18.828;2023-06-14T11:34:02;8.77;;;2.47;;
72406;SDS011;60396;47.550;18.828;2023-06-14T11:36:31;5.45;;;2.20;;
72406;SDS011;60396;47.550;18.828;2023-06-14T11:39:05;7.72;;;2.50;;
72406;SDS011;60396;47.550;18.828;2023-06-14T11:41:41;8.05;;;2.33;;
72406;SDS011;60396;47.550;18.828;2023-06-14T11:44:10;9.17;;;2.60;;
72406;SDS011;60396;47.550;18.828;2023-06-14T11:46:39;8.05;;;2.67;;
72406;SDS011;60396;47.550;18.828;2023-06-14T11:49:07;6.30;;;2.35;;
72406;SDS011;60396;47.550;18.828;2023-06-14T11:51:36;9.75;;;2.35;;
72406;SDS011;60396;47.550;18.828;2023-06-14T11:54:05;6.70;;;2.65;;
72406;SDS011;60396;47.550;18.828;2023-06-14T11:56:33;7.73;;;2.30;;
72406;SDS011;60396;47.550;18.828;2023-06-14T11:59:02;8.55;;;2.35;;
72406;SDS011;60396;47.550;18.828;2023-06-14T12:01:31;6.35;;;2.15;;
72406;SDS011;60396;47.550;18.828;2023-06-14T12:03:59;7.78;;;2.33;;
72406;SDS011;60396;47.550;18.828;2023-06-14T12:06:29;7.15;;;2.40;;
72406;SDS011;60396;47.550;18.828;2023-06-14T12:09:04;6.37;;;2.20;;
72406;SDS011;60396;47.550;18.828;2023-06-14T12:11:41;9.63;;;2.47;;
72406;SDS011;60396;47.550;18.828;2023-06-14T12:14:09;5.82;;;2.20;;
72406;SDS011;60396;47.550;18.828;2023-06-14T12:16:38;6.87;;;2.28;;
72406;SDS011;60396;47.550;18.828;2023-06-14T12:19:12;6.70;;;2.50;;
72406;SDS011;60396;47.550;18.828;2023-06-14T12:21:41;10.50;;;2.30;;
72406;SDS011;60396;47.550;18.828;2023-06-14T12:24:09;5.75;;;2.00;;
72406;SDS011;60396;47.550;18.828;2023-06-14T12:26:59;5.45;;;2.05;;
72406;SDS011;60396;47.550;18.828;2023-06-14T12:29:27;9.57;;;2.50;;
72406;SDS011;60396;47.550;18.828;2023-06-14T12:31:54;8.13;;;2.80;;
72406;SDS011;60396;47.550;18.828;2023-06-14T12:34:24;6.63;;;2.50;;
72406;SDS011;60396;47.550;18.828;2023-06-14T12:36:52;7.03;;;2.35;;
72406;SDS011;60396;47.550;18.828;2023-06-14T12:39:23;6.90;;;2.28;;
72406;SDS011;60396;47.550;18.828;2023-06-14T12:41:52;8.68;;;2.28;;
72406;SDS011;60396;47.550;18.828;2023-06-14T12:44:19;9.82;;;2.78;;
72406;SDS011;60396;47.550;18.828;2023-06-14T12:46:47;6.47;;;2.10;;
72406;SDS011;60396;47.550;18.828;2023-06-14T12:49:15;7.50;;;2.00;;
72406;SDS011;60396;47.550;18.828;2023-06-14T12:51:42;7.78;;;2.05;;
72406;SDS011;60396;47.550;18.828;2023-06-14T12:54:10;6.07;;;2.05;;
72406;SDS011;60396;47.550;18.828;2023-06-14T12:56:38;6.43;;;2.12;;
72406;SDS011;60396;47.550;18.828;2023-06-14T12:59:06;6.47;;;1.93;;
72406;SDS011;60396;47.550;18.828;2023-06-14T13:01:33;9.20;;;2.20;;
72406;SDS011;60396;47.550;18.828;2023-06-14T13:04:01;7.87;;;2.33;;
72406;SDS011;60396;47.550;18.828;2023-06-14T13:06:29;10.82;;;2.53;;
72406;SDS011;60396;47.550;18.828;2023-06-14T13:08:58;7.82;;;2.50;;
72406;SDS011;60396;47.550;18.828;2023-06-14T13:11:26;5.33;;;2.03;;
72406;SDS011;60396;47.550;18.828;2023-06-14T13:13:54;7.47;;;2.12;;
72406;SDS011;60396;47.550;18.828;2023-06-14T13:16:21;9.73;;;2.05;;
72406;SDS011;60396;47.550;18.828;2023-06-14T13:18:49;8.77;;;2.28;;
72406;SDS011;60396;47.550;18.828;2023-06-14T13:21:20;5.95;;;2.10;;
72406;SDS011;60396;47.550;18.828;2023-06-14T13:23:47;6.93;;;2.23;;
72406;SDS011;60396;47.550;18.828;2023-06-14T13:26:15;6.45;;;2.10;;
72406;SDS011;60396;47.550;18.828;2023-06-14T13:28:45;7.78;;;2.33;;
72406;SDS011;60396;47.550;18.828;2023-06-14T13:31:13;6.47;;;1.65;;
72406;SDS011;60396;47.550;18.828;2023-06-14T13:33:41;5.95;;;2.05;;
72406;SDS011;60396;47.550;18.828;2023-06-14T13:36:09;8.83;;;2.07;;
72406;SDS011;60396;47.550;18.828;2023-06-14T13:38:37;7.50;;;1.98;;
72406;SDS011;60396;47.550;18.828;2023-06-14T13:41:05;7.90;;;2.00;;
72406;SDS011;60396;47.550;18.828;2023-06-14T13:43:32;5.22;;;1.80;;
72406;SDS011;60396;47.550;18.828;2023-06-14T13:46:00;10.10;;;2.05;;
72406;SDS011;60396;47.550;18.828;2023-06-14T13:48:28;5.53;;;1.83;;
72406;SDS011;60396;47.550;18.828;2023-06-14T13:50:55;11.73;;;2.12;;
72406;SDS011;60396;47.550;18.828;2023-06-14T13:53:24;10.55;;;1.73;;
72406;SDS011;60396;47.550;18.828;2023-06-14T13:55:52;8.02;;;2.20;;
72406;SDS011;60396;47.550;18.828;2023-06-14T13:58:20;9.55;;;2.10;;
72406;SDS011;60396;47.550;18.828;2023-06-14T14:00:47;10.60;;;1.80;;
72406;SDS011;60396;47.550;18.828;2023-06-14T14:03:15;7.87;;;2.10;;
72406;SDS011;60396;47.550;18.828;2023-06-14T14:05:43;9.65;;;2.05;;
72406;SDS011;60396;47.550;18.828;2023-06-14T14:08:10;6.82;;;2.25;;
72406;SDS011;60396;47.550;18.828;2023-06-14T14:10:38;6.95;;;2.30;;
72406;SDS011;60396;47.550;18.828;2023-06-14T14:13:06;5.50;;;1.77;;
72406;SDS011;60396;47.550;18.828;2023-06-14T14:15:33;9.00;;;1.92;;
72406;SDS011;60396;47.550;18.828;2023-06-14T14:18:02;7.57;;;1.92;;
72406;SDS011;60396;47.550;18.828;2023-06-14T14:20:32;7.43;;;2.12;;
72406;SDS011;60396;47.550;18.828;2023-06-14T14:23:00;6.30;;;2.15;;
72406;SDS011;60396;47.550;18.828;2023-06-14T14:25:28;6.37;;;2.10;;
72406;SDS011;60396;47.550;18.828;2023-06-14T14:27:55;8.10;;;2.30;;
72406;SDS011;60396;47.550;18.828;2023-06-14T14:30:23;6.95;;;2.47;;
72406;SDS011;60396;47.550;18.828;2023-06-14T14:32:51;7.25;;;2.00;;
72406;SDS011;60396;47.550;18.828;2023-06-14T14:35:20;7.20;;;2.08;;
72406;SDS011;60396;47.550;18.828;2023-06-14T14:37:53;9.70;;;2.20;;
72406;SDS011;60396;47.550;18.828;2023-06-14T14:40:21;7.25;;;3.33;;
72406;SDS011;60396;47.550;18.828;2023-06-14T14:42:49;7.22;;;2.20;;
72406;SDS011;60396;47.550;18.828;2023-06-14T14:45:16;9.95;;;2.70;;
72406;SDS011;60396;47.550;18.828;2023-06-14T14:47:44;7.10;;;2.40;;
72406;SDS011;60396;47.550;18.828;2023-06-14T14:50:12;9.83;;;2.20;;
72406;SDS011;60396;47.550;18.828;2023-06-14T14:52:40;7.60;;;2.15;;
72406;SDS011;60396;47.550;18.828;2023-06-14T14:55:08;10.02;;;2.00;;
72406;SDS011;60396;47.550;18.828;2023-06-14T14:57:35;9.00;;;2.17;;
72406;SDS011;60396;47.550;18.828;2023-06-14T15:00:04;6.55;;;2.15;;